Time;durP1;ratioP1;P1;durP2;ratioP2;P2;SDS_P1;SDS_P2;PMS_P1;PMS_P2;Temp;Humidity;BMP_temperature;BMP_pressure;BME280_temperature;BME280_humidity;BME280_pressure;Samples;Min_cycle;Max_cycle;Signal;HPM_P1;HPM_P2
2023/11/25 08:43:54;;;;;;;4.43;0.70;;;6.50;99.90;;;;;;4962770;23;20435;-76
2023/11/25 08:46:21;;;;;;;1.50;0.47;;;6.60;99.90;;;;;;4944716;28;20212;-75
2023/11/25 08:48:48;;;;;;;1.33;0.50;;;6.50;99.90;;;;;;4935027;29;20621;-75
2023/11/25 08:51:15;;;;;;;2.83;0.50;;;6.60;99.90;;;;;;4935698;29;20600;-75
2023/11/25 08:53:44;;;;;;;2.77;0.53;;;6.60;99.90;;;;;;4934491;29;20613;-75
2023/11/25 08:56:11;;;;;;;2.73;0.47;;;6.70;99.90;;;;;;4919395;29;20248;-75
2023/11/25 08:58:40;;;;;;;0.70;0.27;;;6.60;99.90;;;;;;4919096;29;20205;-75
2023/11/25 09:01:08;;;;;;;0.73;0.47;;;6.50;99.90;;;;;;4938156;29;20615;-76
2023/11/25 09:03:36;;;;;;;1.77;0.60;;;6.60;99.90;;;;;;4935965;29;20264;-76
2023/11/25 09:06:03;;;;;;;1.50;0.47;;;6.70;99.90;;;;;;4919189;29;20213;-75
2023/11/25 09:08:30;;;;;;;3.10;0.50;;;6.90;99.90;;;;;;4918712;29;20578;-76
2023/11/25 09:10:58;;;;;;;5.07;0.70;;;7.10;99.90;;;;;;4932712;29;20256;-76
2023/11/25 09:13:25;;;;;;;0.70;0.57;;;7.20;99.90;;;;;;4938058;29;20609;-76
2023/11/25 09:15:57;;;;;;;1.70;0.53;;;7.20;99.90;;;;;;4918964;29;20215;-74
2023/11/25 09:18:27;;;;;;;2.97;0.60;;;7.10;99.90;;;;;;4944994;28;20208;-74
2023/11/25 09:20:54;;;;;;;1.40;0.70;;;6.90;99.90;;;;;;4942936;29;20208;-74
2023/11/25 09:23:21;;;;;;;3.37;0.60;;;6.90;99.90;;;;;;4955608;29;20630;-74
2023/11/25 09:25:48;;;;;;;0.97;0.50;;;6.80;99.90;;;;;;4918368;29;20206;-75
2023/11/25 09:28:15;;;;;;;5.17;0.60;;;6.70;99.90;;;;;;4933446;29;20447;-74
2023/11/25 09:30:42;;;;;;;7.10;1.00;;;6.60;99.90;;;;;;4930392;29;20319;-76
2023/11/25 09:33:09;;;;;;;0.73;0.40;;;6.60;99.90;;;;;;4935857;29;20739;-76
2023/11/25 09:35:37;;;;;;;5.30;1.57;;;6.60;99.90;;;;;;4919449;29;20241;-78
2023/11/25 09:38:04;;;;;;;1.80;0.60;;;6.70;99.90;;;;;;4918535;29;20230;-77
2023/11/25 09:40:32;;;;;;;3.53;0.60;;;6.90;99.90;;;;;;4918989;29;20234;-77
2023/11/25 09:42:59;;;;;;;3.40;0.63;;;7.10;99.90;;;;;;4918676;29;20218;-77
2023/11/25 09:45:29;;;;;;;2.87;0.50;;;7.30;99.90;;;;;;4918782;29;20614;-77
2023/11/25 09:47:57;;;;;;;0.97;0.50;;;7.30;99.90;;;;;;4918458;29;20210;-77
2023/11/25 09:50:24;;;;;;;2.93;0.70;;;7.40;99.90;;;;;;4918049;29;20280;-77
2023/11/25 09:52:54;;;;;;;0.80;0.50;;;7.30;99.90;;;;;;4918564;29;20210;-77
2023/11/25 09:55:23;;;;;;;1.03;0.47;;;7.30;99.90;;;;;;4918567;29;20329;-76
2023/11/25 09:57:54;;;;;;;1.40;0.53;;;7.20;99.90;;;;;;4918420;29;20585;-77
2023/11/25 10:00:22;;;;;;;0.73;0.33;;;7.20;99.90;;;;;;4918360;29;20712;-76
2023/11/25 10:02:52;;;;;;;2.93;1.33;;;7.30;99.90;;;;;;4918391;29;20296;-76
2023/11/25 10:05:19;;;;;;;1.70;0.50;;;7.30;99.90;;;;;;4918453;29;20225;-77
2023/11/25 10:07:46;;;;;;;4.50;0.50;;;7.30;99.90;;;;;;4918188;29;20209;-77
2023/11/25 10:10:21;;;;;;;1.90;0.47;;;7.40;99.90;;;;;;4917181;29;20245;-76
2023/11/25 10:12:49;;;;;;;2.50;0.50;;;7.50;99.90;;;;;;4918236;29;20664;-76
2023/11/25 10:15:16;;;;;;;2.50;0.57;;;7.60;99.90;;;;;;4917861;29;20233;-77
2023/11/25 10:17:44;;;;;;;2.57;0.63;;;7.60;99.90;;;;;;4917637;29;20264;-76
2023/11/25 10:20:18;;;;;;;3.17;0.50;;;7.60;99.90;;;;;;4918038;29;20257;-76
2023/11/25 10:22:46;;;;;;;0.80;0.53;;;7.70;99.90;;;;;;4917847;29;20280;-75
2023/11/25 10:25:17;;;;;;;4.90;0.63;;;7.40;99.90;;;;;;4918320;29;20269;-76
2023/11/25 10:27:45;;;;;;;3.43;0.43;;;7.30;99.90;;;;;;4917794;29;20214;-76
2023/11/25 10:30:14;;;;;;;2.17;0.50;;;7.30;99.90;;;;;;4917451;29;20237;-76
2023/11/25 10:32:41;;;;;;;1.43;0.30;;;7.10;99.90;;;;;;4918116;29;20628;-75
2023/11/25 10:35:09;;;;;;;3.60;0.40;;;7.10;99.90;;;;;;4917885;29;20695;-76
2023/11/25 10:37:38;;;;;;;2.53;0.63;;;7.10;99.90;;;;;;4917742;29;20215;-75
2023/11/25 10:40:09;;;;;;;2.60;0.40;;;7.20;99.90;;;;;;4917447;29;20320;-75
2023/11/25 10:42:40;;;;;;;0.40;0.20;;;7.20;99.90;;;;;;4917502;29;20225;-75
2023/11/25 10:45:15;;;;;;;1.77;0.60;;;7.20;99.90;;;;;;4917332;29;20210;-75
2023/11/25 10:47:43;;;;;;;1.30;0.50;;;7.20;99.90;;;;;;4917670;29;20213;-77
2023/11/25 10:50:10;;;;;;;5.07;0.93;;;7.20;99.90;;;;;;4917390;29;20592;-75
2023/11/25 10:52:40;;;;;;;8.10;1.10;;;7.20;99.90;;;;;;4917421;29;20209;-76
2023/11/25 10:55:08;;;;;;;2.73;0.97;;;7.30;99.90;;;;;;4917167;29;20241;-75
2023/11/25 10:57:38;;;;;;;3.63;0.93;;;7.30;99.90;;;;;;4917275;29;20214;-75
2023/11/25 11:00:10;;;;;;;2.27;0.67;;;7.30;99.90;;;;;;4917382;29;20285;-75
2023/11/25 11:02:45;;;;;;;1.53;0.40;;;7.40;99.90;;;;;;4917377;29;20212;-75
2023/11/25 11:05:18;;;;;;;3.47;0.60;;;7.40;99.90;;;;;;4917260;29;20208;-75
2023/11/25 11:07:49;;;;;;;1.60;0.60;;;7.40;99.90;;;;;;4917102;29;20237;-76
2023/11/25 11:10:32;;;;;;;1.37;0.40;;;7.50;99.90;;;;;;4917246;29;20354;-75
2023/11/25 11:13:04;;;;;;;1.80;0.50;;;7.70;99.90;;;;;;4916846;29;20681;-76
2023/11/25 11:15:34;;;;;;;10.97;0.70;;;7.60;99.90;;;;;;4917265;29;20336;-75
2023/11/25 11:18:13;;;;;;;0.90;0.53;;;7.80;99.90;;;;;;4916785;29;20226;-75
2023/11/25 11:20:46;;;;;;;1.50;0.50;;;8.00;99.90;;;;;;4916738;29;20237;-75
2023/11/25 11:23:15;;;;;;;3.53;0.60;;;8.10;99.90;;;;;;4917122;29;20252;-76
2023/11/25 11:25:56;;;;;;;0.67;0.30;;;8.30;99.90;;;;;;4916876;29;20213;-75
2023/11/25 11:28:32;;;;;;;1.83;0.43;;;8.40;99.90;;;;;;4916566;29;20295;-75
2023/11/25 11:31:29;;;;;;;2.77;0.50;;;8.30;99.90;;;;;;4917170;29;20569;-75
2023/11/25 11:33:56;;;;;;;1.43;0.47;;;8.20;99.90;;;;;;4916636;29;20632;-75
2023/11/25 11:36:30;;;;;;;5.13;0.50;;;8.10;99.90;;;;;;4916766;29;20237;-76
2023/11/25 11:38:57;;;;;;;2.77;0.43;;;7.90;99.90;;;;;;4916983;29;20265;-76
2023/11/25 11:41:27;;;;;;;2.57;0.30;;;7.80;99.90;;;;;;4917027;29;20210;-76
2023/11/25 11:44:03;;;;;;;1.83;0.60;;;7.80;99.90;;;;;;4916922;29;20680;-75
2023/11/25 11:46:30;;;;;;;0.73;0.37;;;7.70;99.90;;;;;;4916544;29;20669;-75
2023/11/25 11:48:58;;;;;;;4.73;0.70;;;7.70;99.90;;;;;;4916635;29;20320;-76
2023/11/25 11:51:25;;;;;;;0.83;0.40;;;7.50;99.90;;;;;;4916643;29;20221;-75
2023/11/25 11:54:23;;;;;;;1.80;0.73;;;7.40;99.90;;;;;;4916769;29;20249;-76
2023/11/25 11:57:00;;;;;;;3.57;0.60;;;7.30;99.90;;;;;;4916662;29;20225;-76
2023/11/25 11:59:59;;;;;;;2.17;0.50;;;7.30;99.90;;;;;;4916218;29;20701;-76
2023/11/25 12:02:29;;;;;;;0.60;0.40;;;7.40;99.90;;;;;;4916861;29;20244;-76
2023/11/25 12:04:58;;;;;;;2.83;0.60;;;7.50;99.90;;;;;;4916894;29;20214;-75
2023/11/25 12:07:26;;;;;;;1.97;0.67;;;7.60;99.90;;;;;;4916786;29;20626;-76
2023/11/25 12:09:53;;;;;;;10.20;1.00;;;7.50;99.90;;;;;;4916451;29;20661;-77
2023/11/25 12:12:21;;;;;;;1.17;0.50;;;7.50;99.90;;;;;;4916664;29;20221;-76
2023/11/25 12:14:48;;;;;;;5.50;0.53;;;7.30;99.90;;;;;;4916625;29;20320;-76
2023/11/25 12:17:16;;;;;;;0.83;0.50;;;7.30;99.90;;;;;;4916595;29;20298;-76
2023/11/25 12:19:44;;;;;;;3.43;0.60;;;7.20;99.90;;;;;;4916156;29;20233;-77
2023/11/25 12:22:11;;;;;;;3.30;0.70;;;7.20;99.90;;;;;;4916356;29;20609;-77
2023/11/25 12:24:38;;;;;;;3.70;0.50;;;7.10;99.90;;;;;;4916528;29;20297;-78
2023/11/25 12:27:08;;;;;;;2.47;0.70;;;7.10;99.90;;;;;;4916677;29;20593;-77
2023/11/25 12:29:35;;;;;;;0.70;0.40;;;7.20;99.90;;;;;;4916296;29;20269;-77
2023/11/25 12:32:03;;;;;;;2.33;0.60;;;7.50;99.90;;;;;;4916241;29;20297;-78
2023/11/25 12:34:31;;;;;;;1.27;0.63;;;7.90;99.90;;;;;;4917349;29;20209;-78
2023/11/25 12:37:00;;;;;;;2.03;0.70;;;8.10;99.90;;;;;;4919841;29;20206;-78
2023/11/25 12:39:27;;;;;;;1.47;0.87;;;8.20;99.90;;;;;;4919608;29;20596;-78
2023/11/25 12:41:54;;;;;;;2.40;0.70;;;8.00;99.90;;;;;;4919816;29;20202;-77
2023/11/25 12:44:22;;;;;;;3.00;0.50;;;7.80;99.90;;;;;;4918748;29;20700;-78
2023/11/25 12:47:03;;;;;;;2.47;0.50;;;7.60;99.90;;;;;;4919389;29;20205;-78
2023/11/25 12:49:31;;;;;;;3.10;0.60;;;7.60;99.90;;;;;;4919006;29;20720;-78
2023/11/25 12:51:58;;;;;;;3.50;0.97;;;7.60;99.90;;;;;;4919231;29;20325;-78
2023/11/25 12:54:26;;;;;;;1.87;0.83;;;7.50;99.90;;;;;;4919952;29;20209;-78
2023/11/25 12:56:57;;;;;;;3.10;0.50;;;7.50;99.90;;;;;;4919460;29;20238;-78
2023/11/25 12:59:26;;;;;;;3.53;1.53;;;7.50;99.90;;;;;;4919190;29;20236;-78
2023/11/25 13:01:53;;;;;;;6.23;1.10;;;7.60;99.90;;;;;;4918346;29;20241;-78
2023/11/25 13:04:20;;;;;;;2.40;0.70;;;7.60;99.90;;;;;;4925127;29;20299;-78
2023/11/25 13:06:50;;;;;;;3.33;0.60;;;7.90;99.90;;;;;;4940701;29;20276;-80
2023/11/25 13:09:19;;;;;;;3.43;0.80;;;8.10;99.90;;;;;;4931401;29;20225;-76
2023/11/25 13:11:47;;;;;;;2.60;0.80;;;8.30;99.90;;;;;;4957163;29;20603;-77
2023/11/25 13:14:16;;;;;;;4.00;0.83;;;8.30;99.90;;;;;;4935223;29;20560;-76
2023/11/25 13:16:43;;;;;;;3.33;1.13;;;8.00;99.90;;;;;;4919058;29;20237;-77
2023/11/25 13:19:11;;;;;;;1.77;0.93;;;7.90;99.90;;;;;;4918423;29;20225;-76
2023/11/25 13:21:38;;;;;;;6.10;3.17;;;7.90;99.90;;;;;;4921462;29;20205;-77
2023/11/25 13:24:07;;;;;;;2.90;1.20;;;8.00;99.90;;;;;;4929199;29;20221;-78
2023/11/25 13:26:34;;;;;;;19.60;3.97;;;7.90;99.90;;;;;;4918812;29;20220;-78
2023/11/25 13:29:01;;;;;;;1.97;1.20;;;7.80;99.90;;;;;;4917378;29;20305;-75
2023/11/25 13:31:28;;;;;;;6.67;1.67;;;7.80;99.90;;;;;;4918523;29;20677;-77
2023/11/25 13:33:55;;;;;;;8.70;2.17;;;7.80;99.90;;;;;;4926058;29;20213;-74
2023/11/25 13:36:22;;;;;;;4.60;1.00;;;7.70;99.90;;;;;;4936184;29;20723;-80
2023/11/25 13:38:50;;;;;;;4.00;1.83;;;7.70;99.90;;;;;;4936008;29;20312;-77
2023/11/25 13:41:18;;;;;;;2.03;1.00;;;7.60;99.90;;;;;;4934667;29;20209;-76
2023/11/25 13:43:46;;;;;;;2.07;0.60;;;7.60;99.90;;;;;;4929911;29;20217;-75
2023/11/25 13:46:13;;;;;;;3.33;0.90;;;7.50;99.90;;;;;;4915770;29;20221;-77
2023/11/25 13:48:40;;;;;;;2.93;0.80;;;7.40;99.90;;;;;;4917417;29;20629;-76
2023/11/25 13:51:08;;;;;;;4.70;0.90;;;7.30;99.90;;;;;;4917524;29;20217;-76
2023/11/25 13:53:35;;;;;;;2.47;0.60;;;7.30;99.90;;;;;;4931123;29;20218;-81
2023/11/25 13:56:02;;;;;;;3.63;1.00;;;7.30;99.90;;;;;;4936244;29;20228;-80
2023/11/25 13:58:31;;;;;;;3.30;0.60;;;7.30;99.90;;;;;;4936585;29;20679;-78
2023/11/25 14:00:58;;;;;;;2.80;0.80;;;7.40;99.90;;;;;;4935911;29;20205;-77
2023/11/25 14:03:25;;;;;;;3.10;0.73;;;7.50;99.90;;;;;;4935381;29;20215;-77
2023/11/25 14:05:53;;;;;;;2.23;0.63;;;7.40;99.90;;;;;;4918502;29;20209;-75
2023/11/25 14:08:27;;;;;;;3.53;0.93;;;7.40;99.90;;;;;;4917955;29;20209;-77
2023/11/25 14:10:55;;;;;;;2.30;0.80;;;7.40;99.90;;;;;;4918320;29;20293;-75
2023/11/25 14:13:22;;;;;;;2.37;0.60;;;7.40;99.90;;;;;;4921172;29;20237;-75
2023/11/25 14:15:50;;;;;;;1.03;0.50;;;7.30;99.90;;;;;;4918137;29;20229;-80
2023/11/25 14:18:17;;;;;;;1.33;0.53;;;7.10;99.90;;;;;;4918039;29;20641;-77
2023/11/25 14:20:44;;;;;;;4.77;2.20;;;7.10;99.90;;;;;;4936488;29;20600;-75
2023/11/25 14:23:11;;;;;;;2.47;0.53;;;7.10;99.90;;;;;;4936256;29;20244;-75
2023/11/25 14:25:38;;;;;;;1.30;0.90;;;7.10;99.90;;;;;;4918516;29;20209;-73
2023/11/25 14:28:07;;;;;;;1.87;0.80;;;7.10;99.90;;;;;;4917429;29;20672;-75
